sensor_id;sensor_type;location;lat;lon;timestamp;P1;durP1;ratioP1;P2;durP2;ratioP2
36789;SDS011;22740;52.182;8.780;2023-04-01T00:02:17;5.95;;;2.33;;
36789;SDS011;22740;52.182;8.780;2023-04-01T00:08:19;7.03;;;2.20;;
36789;SDS011;22740;52.182;8.780;2023-04-01T00:14:21;4.55;;;2.15;;
36789;SDS011;22740;52.182;8.780;2023-04-01T00:20:24;4.40;;;1.85;;
36789;SDS011;22740;52.182;8.780;2023-04-01T00:26:27;5.63;;;2.30;;
36789;SDS011;22740;52.182;8.780;2023-04-01T00:32:28;6.30;;;1.80;;
36789;SDS011;22740;52.182;8.780;2023-04-01T00:38:31;3.70;;;1.50;;
36789;SDS011;22740;52.182;8.780;2023-04-01T00:44:33;7.03;;;1.65;;
36789;SDS011;22740;52.182;8.780;2023-04-01T00:50:35;5.97;;;1.95;;
36789;SDS011;22740;52.182;8.780;2023-04-01T00:56:41;5.57;;;1.30;;
36789;SDS011;22740;52.182;8.780;2023-04-01T01:02:50;6.78;;;1.35;;
36789;SDS011;22740;52.182;8.780;2023-04-01T01:08:58;3.38;;;1.02;;
36789;SDS011;22740;52.182;8.780;2023-04-01T01:22:13;7.28;;;1.30;;
36789;SDS011;22740;52.182;8.780;2023-04-01T01:28:30;1.83;;;0.77;;
36789;SDS011;22740;52.182;8.780;2023-04-01T01:41:00;3.33;;;1.20;;
36789;SDS011;22740;52.182;8.780;2023-04-01T01:47:05;3.80;;;1.30;;
36789;SDS011;22740;52.182;8.780;2023-04-01T01:53:08;1.48;;;0.63;;
36789;SDS011;22740;52.182;8.780;2023-04-01T01:59:12;4.43;;;0.85;;
36789;SDS011;22740;52.182;8.780;2023-04-01T02:05:21;3.00;;;0.75;;
36789;SDS011;22740;52.182;8.780;2023-04-01T02:11:30;3.80;;;0.60;;
36789;SDS011;22740;52.182;8.780;2023-04-01T02:17:46;2.67;;;0.70;;
36789;SDS011;22740;52.182;8.780;2023-04-01T02:23:50;1.48;;;0.52;;
36789;SDS011;22740;52.182;8.780;2023-04-01T02:35:57;1.98;;;0.60;;
36789;SDS011;22740;52.182;8.780;2023-04-01T02:41:59;2.33;;;0.57;;
36789;SDS011;22740;52.182;8.780;2023-04-01T02:48:01;2.05;;;0.73;;
36789;SDS011;22740;52.182;8.780;2023-04-01T02:54:03;1.83;;;0.40;;
36789;SDS011;22740;52.182;8.780;2023-04-01T03:00:05;1.48;;;0.35;;
36789;SDS011;22740;52.182;8.780;2023-04-01T03:06:13;4.75;;;0.80;;
36789;SDS011;22740;52.182;8.780;2023-04-01T03:12:17;3.83;;;0.60;;
36789;SDS011;22740;52.182;8.780;2023-04-01T03:18:19;3.03;;;0.60;;
36789;SDS011;22740;52.182;8.780;2023-04-01T03:24:21;1.05;;;0.40;;
36789;SDS011;22740;52.182;8.780;2023-04-01T03:30:23;1.88;;;0.65;;
36789;SDS011;22740;52.182;8.780;2023-04-01T03:36:25;3.35;;;0.47;;
36789;SDS011;22740;52.182;8.780;2023-04-01T03:42:27;4.15;;;0.73;;
36789;SDS011;22740;52.182;8.780;2023-04-01T03:48:28;2.38;;;0.40;;
36789;SDS011;22740;52.182;8.780;2023-04-01T03:54:30;3.20;;;0.68;;
36789;SDS011;22740;52.182;8.780;2023-04-01T04:00:33;2.00;;;0.45;;
36789;SDS011;22740;52.182;8.780;2023-04-01T04:06:35;1.33;;;0.30;;
36789;SDS011;22740;52.182;8.780;2023-04-01T04:12:37;3.60;;;0.50;;
36789;SDS011;22740;52.182;8.780;2023-04-01T04:18:39;2.78;;;0.50;;
36789;SDS011;22740;52.182;8.780;2023-04-01T04:24:40;3.28;;;0.45;;
36789;SDS011;22740;52.182;8.780;2023-04-01T04:30:42;1.83;;;0.47;;
36789;SDS011;22740;52.182;8.780;2023-04-01T04:36:44;2.80;;;0.43;;
36789;SDS011;22740;52.182;8.780;2023-04-01T04:42:46;1.58;;;0.38;;
36789;SDS011;22740;52.182;8.780;2023-04-01T04:48:48;1.05;;;0.30;;
36789;SDS011;22740;52.182;8.780;2023-04-01T04:54:50;2.65;;;0.43;;
36789;SDS011;22740;52.182;8.780;2023-04-01T05:00:52;1.85;;;0.43;;
36789;SDS011;22740;52.182;8.780;2023-04-01T05:06:54;2.15;;;0.40;;
36789;SDS011;22740;52.182;8.780;2023-04-01T05:12:56;2.40;;;0.40;;
36789;SDS011;22740;52.182;8.780;2023-04-01T05:18:59;1.98;;;0.40;;
36789;SDS011;22740;52.182;8.780;2023-04-01T05:25:01;0.73;;;0.30;;
36789;SDS011;22740;52.182;8.780;2023-04-01T05:31:05;1.55;;;0.40;;
36789;SDS011;22740;52.182;8.780;2023-04-01T05:37:08;1.58;;;0.43;;
36789;SDS011;22740;52.182;8.780;2023-04-01T05:43:11;0.20;;;0.20;;
36789;SDS011;22740;52.182;8.780;2023-04-01T05:49:13;1.20;;;0.45;;
36789;SDS011;22740;52.182;8.780;2023-04-01T05:55:15;2.08;;;0.32;;
36789;SDS011;22740;52.182;8.780;2023-04-01T06:01:17;3.08;;;0.40;;
36789;SDS011;22740;52.182;8.780;2023-04-01T06:07:19;1.52;;;0.22;;
36789;SDS011;22740;52.182;8.780;2023-04-01T06:20:04;0.55;;;0.40;;
36789;SDS011;22740;52.182;8.780;2023-04-01T06:39:15;2.10;;;0.47;;
36789;SDS011;22740;52.182;8.780;2023-04-01T06:45:45;1.33;;;0.55;;
36789;SDS011;22740;52.182;8.780;2023-04-01T06:51:59;1.00;;;0.30;;
36789;SDS011;22740;52.182;8.780;2023-04-01T06:58:24;2.35;;;0.30;;
36789;SDS011;22740;52.182;8.780;2023-04-01T07:04:32;1.98;;;0.40;;
36789;SDS011;22740;52.182;8.780;2023-04-01T07:23:02;1.02;;;0.30;;
36789;SDS011;22740;52.182;8.780;2023-04-01T07:29:11;1.33;;;0.30;;
36789;SDS011;22740;52.182;8.780;2023-04-01T07:35:24;0.70;;;0.32;;
36789;SDS011;22740;52.182;8.780;2023-04-01T07:41:38;0.52;;;0.30;;
36789;SDS011;22740;52.182;8.780;2023-04-01T08:01:25;1.07;;;0.40;;
36789;SDS011;22740;52.182;8.780;2023-04-01T08:07:44;0.70;;;0.47;;
36789;SDS011;22740;52.182;8.780;2023-04-01T08:27:03;1.05;;;0.40;;
36789;SDS011;22740;52.182;8.780;2023-04-01T08:33:22;0.65;;;0.32;;
36789;SDS011;22740;52.182;8.780;2023-04-01T09:10:33;2.90;;;0.60;;
36789;SDS011;22740;52.182;8.780;2023-04-01T09:29:56;1.65;;;0.90;;
36789;SDS011;22740;52.182;8.780;2023-04-01T09:36:18;2.55;;;0.80;;
36789;SDS011;22740;52.182;8.780;2023-04-01T09:42:41;2.75;;;0.82;;
36789;SDS011;22740;52.182;8.780;2023-04-01T09:49:11;1.10;;;0.50;;
36789;SDS011;22740;52.182;8.780;2023-04-01T10:28:08;2.65;;;0.60;;
36789;SDS011;22740;52.182;8.780;2023-04-01T10:53:40;1.67;;;0.73;;
36789;SDS011;22740;52.182;8.780;2023-04-01T11:19:38;1.15;;;0.60;;
36789;SDS011;22740;52.182;8.780;2023-04-01T11:32:26;0.63;;;0.30;;
36789;SDS011;22740;52.182;8.780;2023-04-01T11:39:00;1.75;;;0.20;;
36789;SDS011;22740;52.182;8.780;2023-04-01T11:52:13;0.40;;;0.20;;
36789;SDS011;22740;52.182;8.780;2023-04-01T12:04:27;0.25;;;0.22;;
36789;SDS011;22740;52.182;8.780;2023-04-01T12:36:43;2.95;;;0.60;;
36789;SDS011;22740;52.182;8.780;2023-04-01T12:49:34;1.37;;;0.33;;
36789;SDS011;22740;52.182;8.780;2023-04-01T12:56:07;1.30;;;0.60;;
36789;SDS011;22740;52.182;8.780;2023-04-01T13:15:47;1.23;;;0.73;;
36789;SDS011;22740;52.182;8.780;2023-04-01T13:21:35;1.27;;;0.90;;
36789;SDS011;22740;52.182;8.780;2023-04-01T13:27:49;2.47;;;0.60;;
36789;SDS011;22740;52.182;8.780;2023-04-01T13:53:51;1.50;;;0.50;;
36789;SDS011;22740;52.182;8.780;2023-04-01T14:06:16;1.20;;;0.70;;
36789;SDS011;22740;52.182;8.780;2023-04-01T14:32:28;0.63;;;0.40;;
36789;SDS011;22740;52.182;8.780;2023-04-01T14:45:30;0.80;;;0.50;;
36789;SDS011;22740;52.182;8.780;2023-04-01T14:51:56;1.63;;;0.60;;
36789;SDS011;22740;52.182;8.780;2023-04-01T14:58:17;1.38;;;0.60;;
36789;SDS011;22740;52.182;8.780;2023-04-01T15:05:05;1.50;;;0.60;;
36789;SDS011;22740;52.182;8.780;2023-04-01T15:17:19;2.53;;;0.40;;
36789;SDS011;22740;52.182;8.780;2023-04-01T15:48:20;1.00;;;0.50;;
36789;SDS011;22740;52.182;8.780;2023-04-01T15:54:59;2.28;;;0.80;;
36789;SDS011;22740;52.182;8.780;2023-04-01T16:14:09;2.70;;;1.77;;
36789;SDS011;22740;52.182;8.780;2023-04-01T16:26:48;3.20;;;2.53;;
36789;SDS011;22740;52.182;8.780;2023-04-01T16:33:28;2.28;;;1.60;;
36789;SDS011;22740;52.182;8.780;2023-04-01T16:39:37;2.83;;;1.75;;
36789;SDS011;22740;52.182;8.780;2023-04-01T16:58:05;2.40;;;1.80;;
36789;SDS011;22740;52.182;8.780;2023-04-01T17:04:15;3.45;;;2.08;;
36789;SDS011;22740;52.182;8.780;2023-04-01T17:10:56;2.92;;;2.03;;
36789;SDS011;22740;52.182;8.780;2023-04-01T17:30:09;2.33;;;1.60;;
36789;SDS011;22740;52.182;8.780;2023-04-01T17:36:41;2.08;;;1.13;;
36789;SDS011;22740;52.182;8.780;2023-04-01T17:49:30;2.92;;;1.50;;
36789;SDS011;22740;52.182;8.780;2023-04-01T18:02:15;2.33;;;1.20;;
36789;SDS011;22740;52.182;8.780;2023-04-01T18:08:59;1.77;;;1.10;;
36789;SDS011;22740;52.182;8.780;2023-04-01T18:21:53;2.35;;;1.00;;
36789;SDS011;22740;52.182;8.780;2023-04-01T18:28:17;2.15;;;1.20;;
36789;SDS011;22740;52.182;8.780;2023-04-01T18:40:42;3.25;;;1.83;;
36789;SDS011;22740;52.182;8.780;2023-04-01T18:46:53;3.20;;;2.42;;
36789;SDS011;22740;52.182;8.780;2023-04-01T18:53:35;2.25;;;1.77;;
36789;SDS011;22740;52.182;8.780;2023-04-01T18:59:57;2.17;;;1.70;;
36789;SDS011;22740;52.182;8.780;2023-04-01T19:06:17;2.63;;;1.73;;
36789;SDS011;22740;52.182;8.780;2023-04-01T19:19:08;2.80;;;1.75;;
36789;SDS011;22740;52.182;8.780;2023-04-01T19:25:37;2.45;;;1.52;;
36789;SDS011;22740;52.182;8.780;2023-04-01T19:38:04;1.20;;;0.90;;
36789;SDS011;22740;52.182;8.780;2023-04-01T19:44:19;2.30;;;1.40;;
36789;SDS011;22740;52.182;8.780;2023-04-01T20:03:58;3.58;;;1.70;;
36789;SDS011;22740;52.182;8.780;2023-04-01T20:10:18;3.60;;;1.80;;
36789;SDS011;22740;52.182;8.780;2023-04-01T20:16:48;3.17;;;1.60;;
36789;SDS011;22740;52.182;8.780;2023-04-01T20:36:21;1.58;;;1.17;;
36789;SDS011;22740;52.182;8.780;2023-04-01T20:49:04;3.07;;;2.10;;
36789;SDS011;22740;52.182;8.780;2023-04-01T20:55:37;3.00;;;1.75;;
36789;SDS011;22740;52.182;8.780;2023-04-01T21:15:09;2.65;;;1.50;;
36789;SDS011;22740;52.182;8.780;2023-04-01T21:21:16;2.28;;;1.48;;
36789;SDS011;22740;52.182;8.780;2023-04-01T21:27:25;5.03;;;1.67;;
36789;SDS011;22740;52.182;8.780;2023-04-01T21:34:05;4.30;;;1.88;;
36789;SDS011;22740;52.182;8.780;2023-04-01T21:40:28;3.97;;;1.67;;
36789;SDS011;22740;52.182;8.780;2023-04-01T21:46:45;2.65;;;1.52;;
36789;SDS011;22740;52.182;8.780;2023-04-01T22:00:00;3.28;;;2.00;;
36789;SDS011;22740;52.182;8.780;2023-04-01T22:06:19;3.90;;;2.00;;
36789;SDS011;22740;52.182;8.780;2023-04-01T22:12:35;3.45;;;1.75;;
36789;SDS011;22740;52.182;8.780;2023-04-01T22:18:50;2.42;;;1.50;;
36789;SDS011;22740;52.182;8.780;2023-04-01T22:25:11;3.05;;;1.60;;
36789;SDS011;22740;52.182;8.780;2023-04-01T22:31:26;5.38;;;1.63;;
36789;SDS011;22740;52.182;8.780;2023-04-01T22:37:37;3.08;;;1.52;;
36789;SDS011;22740;52.182;8.780;2023-04-01T22:43:57;2.55;;;1.65;;
36789;SDS011;22740;52.182;8.780;2023-04-01T22:50:02;4.07;;;2.13;;
36789;SDS011;22740;52.182;8.780;2023-04-01T22:56:20;3.92;;;2.25;;
36789;SDS011;22740;52.182;8.780;2023-04-01T23:03:01;5.32;;;2.42;;
36789;SDS011;22740;52.182;8.780;2023-04-01T23:09:19;3.53;;;2.40;;
36789;SDS011;22740;52.182;8.780;2023-04-01T23:15:24;4.82;;;2.40;;
36789;SDS011;22740;52.182;8.780;2023-04-01T23:21:33;4.32;;;2.30;;
36789;SDS011;22740;52.182;8.780;2023-04-01T23:27:56;4.47;;;2.17;;
36789;SDS011;22740;52.182;8.780;2023-04-01T23:40:14;4.22;;;1.95;;
36789;SDS011;22740;52.182;8.780;2023-04-01T23:46:16;5.57;;;1.80;;
36789;SDS011;22740;52.182;8.780;2023-04-01T23:52:22;3.75;;;2.10;;
36789;SDS011;22740;52.182;8.780;2023-04-01T23:58:28;4.30;;;1.80;;
